Time;durP1;ratioP1;P1;durP2;ratioP2;P2;SDS_P1;SDS_P2;PMS_P1;PMS_P2;Temp;Humidity;BMP_temperature;BMP_pressure;BME280_temperature;BME280_humidity;BME280_pressure;Samples;Min_cycle;Max_cycle;Signal;HPM_P1;HPM_P2
2023/03/18 00:01:03;;;;;;;11.57;9.00;;;8.50;52.80;;;;;;6345383;27;20281;-80
2023/03/18 00:04:06;;;;;;;8.80;8.00;;;8.50;52.70;;;;;;6346760;27;20240;-79
2023/03/18 00:07:10;;;;;;;9.03;7.43;;;8.50;52.80;;;;;;6343629;28;20235;-79
2023/03/18 00:10:15;;;;;;;8.77;7.60;;;8.50;52.70;;;;;;6345518;28;20232;-80
2023/03/18 00:13:20;;;;;;;9.80;7.47;;;8.40;52.70;;;;;;6345309;27;20403;-81
2023/03/18 00:16:24;;;;;;;8.30;7.60;;;8.40;53.00;;;;;;6344903;27;20286;-80
2023/03/18 00:19:27;;;;;;;8.37;7.60;;;8.40;52.90;;;;;;6345326;27;20298;-80
2023/03/18 00:22:32;;;;;;;10.23;8.53;;;8.40;53.00;;;;;;6344534;27;20228;-80
2023/03/18 00:25:37;;;;;;;9.90;7.60;;;8.40;53.00;;;;;;6344054;27;20223;-83
2023/03/18 00:28:40;;;;;;;7.90;7.20;;;8.40;53.00;;;;;;6344707;27;20235;-81
2023/03/18 00:31:43;;;;;;;8.20;7.50;;;8.30;53.00;;;;;;6344075;28;20262;-82
2023/03/18 00:34:47;;;;;;;8.40;7.50;;;8.30;53.10;;;;;;6338987;27;20278;-83
2023/03/18 00:37:52;;;;;;;8.63;7.80;;;8.30;53.20;;;;;;6314272;28;20237;-82
2023/03/18 00:41:03;;;;;;;7.77;7.27;;;8.20;53.20;;;;;;6302246;28;20237;-82
2023/03/18 00:44:06;;;;;;;8.37;7.67;;;8.20;53.10;;;;;;6293160;28;20357;-81
2023/03/18 00:47:11;;;;;;;7.80;7.20;;;8.20;53.00;;;;;;6305181;28;20243;-82
2023/03/18 00:50:14;;;;;;;9.53;7.20;;;8.20;53.10;;;;;;6329502;28;20280;-80
2023/03/18 00:53:20;;;;;;;7.80;7.20;;;8.10;53.20;;;;;;6338836;28;20284;-80
2023/03/18 00:56:25;;;;;;;8.73;7.93;;;8.10;53.00;;;;;;6343873;28;20388;-80
2023/03/18 00:59:28;;;;;;;8.73;7.83;;;8.10;53.20;;;;;;6350784;28;20282;-81
2023/03/18 01:02:34;;;;;;;8.30;7.60;;;8.10;53.20;;;;;;6298309;28;20312;-80
2023/03/18 01:05:38;;;;;;;9.20;8.23;;;8.10;53.00;;;;;;6318155;28;20712;-83
2023/03/18 01:08:43;;;;;;;8.97;8.17;;;8.00;53.10;;;;;;6315868;28;20231;-80
2023/03/18 01:11:46;;;;;;;7.63;7.03;;;8.00;53.10;;;;;;6313668;28;20232;-82
2023/03/18 01:14:49;;;;;;;8.70;7.13;;;8.10;53.10;;;;;;6332707;28;20227;-82
2023/03/18 01:17:55;;;;;;;8.33;7.53;;;8.00;53.20;;;;;;6315612;28;20236;-83
2023/03/18 01:20:59;;;;;;;9.07;8.00;;;8.00;53.20;;;;;;6314299;28;20244;-84
2023/03/18 01:24:04;;;;;;;9.37;7.63;;;8.00;53.40;;;;;;6314626;28;20933;-85
2023/03/18 01:27:10;;;;;;;8.27;7.53;;;8.00;53.30;;;;;;6322002;27;20399;-83
2023/03/18 01:30:14;;;;;;;8.27;7.50;;;8.00;53.20;;;;;;6306145;28;20241;-84
2023/03/18 01:33:18;;;;;;;12.90;8.10;;;7.90;53.30;;;;;;6310207;28;20231;-82
2023/03/18 01:36:22;;;;;;;7.60;7.00;;;7.90;53.30;;;;;;6328680;27;20306;-84
2023/03/18 01:39:26;;;;;;;8.30;7.53;;;7.90;53.30;;;;;;6313965;28;20250;-83
2023/03/18 01:42:30;;;;;;;8.37;7.67;;;7.80;53.40;;;;;;6316649;28;20247;-84
2023/03/18 01:45:35;;;;;;;10.10;6.97;;;7.80;53.30;;;;;;6314434;28;20237;-85
2023/03/18 01:48:39;;;;;;;11.87;7.33;;;7.80;53.40;;;;;;6315203;28;20305;-83
2023/03/18 01:51:49;;;;;;;8.80;6.80;;;7.80;53.30;;;;;;6309175;28;21093;-85
2023/03/18 01:54:58;;;;;;;8.23;7.53;;;7.80;53.50;;;;;;6326298;28;20221;-82
2023/03/18 01:58:07;;;;;;;7.87;7.10;;;7.80;53.50;;;;;;6328785;28;20349;-84
2023/03/18 02:01:17;;;;;;;7.80;7.17;;;7.80;53.50;;;;;;6319646;27;20900;-83
2023/03/18 02:04:26;;;;;;;8.50;7.83;;;7.80;53.50;;;;;;6299091;28;20236;-83
2023/03/18 02:07:32;;;;;;;7.60;7.00;;;7.80;53.70;;;;;;6314962;28;20228;-83
2023/03/18 02:10:38;;;;;;;9.90;7.60;;;7.70;53.70;;;;;;6313665;28;20356;-85
2023/03/18 02:13:44;;;;;;;9.83;7.60;;;7.80;53.60;;;;;;6317065;28;20223;-84
2023/03/18 02:16:52;;;;;;;7.23;6.70;;;7.70;53.50;;;;;;6316826;28;20247;-82
2023/03/18 02:20:06;;;;;;;7.00;6.50;;;7.80;53.50;;;;;;6293297;28;20245;-84
2023/03/18 02:23:17;;;;;;;8.57;7.60;;;7.80;53.70;;;;;;6305840;28;20727;-83
2023/03/18 02:26:28;;;;;;;8.23;7.47;;;7.80;53.20;;;;;;6313665;28;20832;-84
2023/03/18 02:29:36;;;;;;;8.47;7.67;;;7.80;53.50;;;;;;6310642;28;20310;-85
2023/03/18 02:32:45;;;;;;;8.30;7.50;;;7.80;53.30;;;;;;6288966;28;20224;-82
2023/03/18 02:35:53;;;;;;;8.10;7.37;;;7.80;53.30;;;;;;6311726;28;20224;-82
2023/03/18 02:38:59;;;;;;;8.20;7.50;;;7.70;53.60;;;;;;6303243;28;20277;-83
2023/03/18 02:42:03;;;;;;;9.57;7.03;;;7.70;53.60;;;;;;6313457;28;20263;-84
2023/03/18 02:45:18;;;;;;;7.97;7.27;;;7.70;53.30;;;;;;6314203;28;20821;-84
2023/03/18 02:48:26;;;;;;;7.70;7.00;;;7.70;53.30;;;;;;6299646;28;20237;-82
2023/03/18 02:51:29;;;;;;;7.37;6.77;;;7.70;53.30;;;;;;6310214;28;20251;-81
2023/03/18 02:54:33;;;;;;;10.67;7.63;;;7.60;53.40;;;;;;6298325;28;20320;-85
2023/03/18 02:57:36;;;;;;;7.83;7.23;;;7.70;53.40;;;;;;6308145;28;20232;-83
2023/03/18 03:00:41;;;;;;;8.80;7.83;;;7.60;53.50;;;;;;6308557;28;20248;-83
2023/03/18 03:03:44;;;;;;;8.47;7.63;;;7.70;53.50;;;;;;6310675;28;20285;-84
2023/03/18 03:06:48;;;;;;;9.77;7.73;;;7.60;53.30;;;;;;6317489;28;20546;-84
2023/03/18 03:09:51;;;;;;;8.67;7.87;;;7.60;53.60;;;;;;6323703;27;20240;-83
2023/03/18 03:12:55;;;;;;;11.17;7.60;;;7.50;53.40;;;;;;6317517;28;20233;-84
2023/03/18 03:16:00;;;;;;;9.07;7.77;;;7.50;53.40;;;;;;6316259;28;20641;-84
2023/03/18 03:19:04;;;;;;;8.87;7.93;;;7.50;53.70;;;;;;6316494;28;20264;-86
2023/03/18 03:22:08;;;;;;;9.27;7.27;;;7.60;53.50;;;;;;6308808;28;20229;-83
2023/03/18 03:25:12;;;;;;;8.67;7.77;;;7.50;53.60;;;;;;6304491;28;20228;-82
2023/03/18 03:28:16;;;;;;;8.93;8.13;;;7.60;53.60;;;;;;6315812;28;20229;-80
2023/03/18 03:31:22;;;;;;;9.10;8.23;;;7.60;53.50;;;;;;6314922;28;20289;-82
2023/03/18 03:34:25;;;;;;;8.43;7.63;;;7.60;53.60;;;;;;6311469;28;20248;-83
2023/03/18 03:37:29;;;;;;;8.33;7.63;;;7.60;53.40;;;;;;6325024;28;20248;-83
2023/03/18 03:40:32;;;;;;;9.43;8.53;;;7.60;54.00;;;;;;6324124;28;20236;-83
2023/03/18 03:43:36;;;;;;;9.90;8.27;;;7.50;53.80;;;;;;6315125;28;20259;-82
2023/03/18 03:46:41;;;;;;;8.50;7.70;;;7.50;53.90;;;;;;6314651;28;20231;-84
2023/03/18 03:49:45;;;;;;;9.80;7.90;;;7.50;53.90;;;;;;6320107;28;20224;-84
2023/03/18 03:52:51;;;;;;;8.60;7.80;;;7.50;53.80;;;;;;6310426;27;20251;-82
2023/03/18 03:55:55;;;;;;;8.60;7.80;;;7.60;53.70;;;;;;6315980;28;20232;-82
2023/03/18 03:59:01;;;;;;;9.17;8.07;;;7.60;53.70;;;;;;6321427;28;20232;-84
2023/03/18 04:02:05;;;;;;;8.43;7.60;;;7.50;53.70;;;;;;6318345;28;20358;-83
2023/03/18 04:05:10;;;;;;;8.33;7.63;;;7.50;53.90;;;;;;6315754;28;20228;-83
2023/03/18 04:08:13;;;;;;;8.23;7.63;;;7.60;53.60;;;;;;6314965;28;20257;-83
2023/03/18 04:11:16;;;;;;;8.27;7.57;;;7.60;53.90;;;;;;6310413;28;20234;-85
2023/03/18 04:14:20;;;;;;;9.07;8.20;;;7.60;53.80;;;;;;6292059;28;20316;-86
2023/03/18 04:17:24;;;;;;;7.47;6.87;;;7.50;54.00;;;;;;6305926;28;20357;-83
2023/03/18 04:20:27;;;;;;;8.40;7.60;;;7.50;53.90;;;;;;6348815;28;20253;-84
2023/03/18 04:23:32;;;;;;;8.20;7.40;;;7.50;53.60;;;;;;6342147;28;20220;-83
2023/03/18 04:26:35;;;;;;;8.50;7.80;;;7.60;53.50;;;;;;6351464;28;20236;-81
2023/03/18 04:29:38;;;;;;;8.77;7.60;;;7.60;53.70;;;;;;6349136;28;20436;-80
2023/03/18 04:32:43;;;;;;;7.97;7.27;;;7.60;53.60;;;;;;6347664;27;20231;-82
2023/03/18 04:35:47;;;;;;;7.77;7.07;;;7.50;53.70;;;;;;6331826;28;20229;-83
2023/03/18 04:38:52;;;;;;;8.73;7.53;;;7.50;53.90;;;;;;6315150;28;20313;-83
2023/03/18 04:41:55;;;;;;;8.47;7.70;;;7.50;54.10;;;;;;6316349;28;20235;-79
2023/03/18 04:44:59;;;;;;;10.47;7.67;;;7.50;54.00;;;;;;6301738;28;20324;-77
2023/03/18 04:48:04;;;;;;;7.80;7.20;;;7.50;54.00;;;;;;6295421;28;20311;-78
2023/03/18 04:51:08;;;;;;;8.63;7.70;;;7.50;54.20;;;;;;6292913;28;20653;-80
2023/03/18 04:54:12;;;;;;;8.07;7.37;;;7.40;54.20;;;;;;6301486;28;20303;-78
2023/03/18 04:57:15;;;;;;;7.77;7.17;;;7.40;54.30;;;;;;6316344;28;20374;-77
2023/03/18 05:00:21;;;;;;;7.80;7.20;;;7.30;54.40;;;;;;6326160;28;20272;-78
2023/03/18 05:03:25;;;;;;;8.30;7.60;;;7.30;54.60;;;;;;6346882;28;20237;-76
2023/03/18 05:06:32;;;;;;;8.10;7.40;;;7.30;54.50;;;;;;6338146;28;20244;-76
2023/03/18 05:09:35;;;;;;;7.93;7.33;;;7.20;54.60;;;;;;6344328;27;20256;-79
2023/03/18 05:12:38;;;;;;;9.00;7.83;;;7.20;54.70;;;;;;6341281;28;20232;-78
2023/03/18 05:15:43;;;;;;;8.20;7.43;;;7.10;55.10;;;;;;6316598;28;20237;-79
2023/03/18 05:18:47;;;;;;;7.60;6.90;;;7.10;55.10;;;;;;6300231;28;20261;-79
2023/03/18 05:21:50;;;;;;;7.57;6.97;;;7.10;55.00;;;;;;6311448;28;20243;-78
2023/03/18 05:24:54;;;;;;;8.90;8.00;;;7.00;55.00;;;;;;6317262;27;20240;-78
2023/03/18 05:27:58;;;;;;;7.83;7.23;;;7.00;55.30;;;;;;6310446;28;20783;-77
2023/03/18 05:31:02;;;;;;;8.17;7.47;;;6.90;55.30;;;;;;6316126;28;20249;-77
2023/03/18 05:34:07;;;;;;;7.90;7.30;;;6.90;55.50;;;;;;6314549;28;20378;-77
2023/03/18 05:37:13;;;;;;;7.87;7.17;;;6.90;55.50;;;;;;6311573;28;20279;-77
2023/03/18 05:40:16;;;;;;;11.30;7.93;;;6.90;55.50;;;;;;6316404;28;20236;-79
2023/03/18 05:43:20;;;;;;;7.90;7.17;;;6.90;55.70;;;;;;6293277;28;20237;-78
2023/03/18 05:46:23;;;;;;;9.10;8.30;;;6.90;55.70;;;;;;6298916;27;20326;-76
2023/03/18 05:49:28;;;;;;;8.57;7.87;;;6.80;55.90;;;;;;6290552;28;20907;-77
2023/03/18 05:52:34;;;;;;;8.97;8.07;;;6.90;56.10;;;;;;6301968;28;20315;-79
2023/03/18 05:55:37;;;;;;;8.20;7.50;;;6.90;56.10;;;;;;6315995;28;20229;-78
2023/03/18 05:58:41;;;;;;;8.30;7.50;;;6.90;56.00;;;;;;6312868;28;20275;-77
2023/03/18 06:01:44;;;;;;;7.53;7.03;;;6.90;55.90;;;;;;6318609;28;20438;-80
2023/03/18 06:04:49;;;;;;;8.07;7.33;;;6.90;55.90;;;;;;6313669;28;20248;-78
2023/03/18 06:07:53;;;;;;;10.13;7.73;;;7.00;55.70;;;;;;6294670;28;20420;-77
2023/03/18 06:10:56;;;;;;;7.40;6.97;;;7.00;55.70;;;;;;6302620;28;20789;-77
2023/03/18 06:13:59;;;;;;;8.40;7.67;;;7.00;55.60;;;;;;6307684;28;20229;-79
2023/03/18 06:17:03;;;;;;;8.23;7.53;;;7.00;55.90;;;;;;6321162;28;20372;-78
2023/03/18 06:20:10;;;;;;;8.97;8.17;;;7.00;56.00;;;;;;6319741;28;20244;-77
2023/03/18 06:23:14;;;;;;;8.17;7.53;;;7.00;55.80;;;;;;6319749;28;20300;-79
2023/03/18 06:26:17;;;;;;;9.03;8.13;;;7.00;55.90;;;;;;6322945;27;20233;-77
2023/03/18 06:29:20;;;;;;;8.57;7.93;;;7.20;55.70;;;;;;6318750;28;20228;-76
2023/03/18 06:32:24;;;;;;;8.70;7.90;;;7.20;55.70;;;;;;6314596;28;20897;-79
2023/03/18 06:35:28;;;;;;;9.17;8.27;;;7.10;55.80;;;;;;6327958;27;20232;-76
2023/03/18 06:38:32;;;;;;;9.03;7.83;;;7.20;55.70;;;;;;6318625;28;20331;-78
2023/03/18 06:41:35;;;;;;;9.00;8.20;;;7.20;55.60;;;;;;6320039;28;20236;-78
2023/03/18 06:44:40;;;;;;;10.50;8.60;;;7.20;55.70;;;;;;6307497;28;20415;-78
2023/03/18 06:47:45;;;;;;;12.73;8.90;;;7.30;55.60;;;;;;6308133;28;20319;-77
2023/03/18 06:50:49;;;;;;;9.93;9.03;;;7.40;55.30;;;;;;6321572;28;20244;-78
2023/03/18 06:53:53;;;;;;;11.33;9.27;;;7.50;55.00;;;;;;6311771;28;20239;-80
2023/03/18 06:56:56;;;;;;;13.10;8.83;;;7.50;55.10;;;;;;6306535;28;20232;-78
2023/03/18 07:00:00;;;;;;;9.63;8.27;;;7.50;55.40;;;;;;6326087;27;20743;-78
2023/03/18 07:03:04;;;;;;;9.47;8.47;;;7.50;55.50;;;;;;6321973;28;20696;-76
2023/03/18 07:06:09;;;;;;;8.67;7.80;;;7.50;55.40;;;;;;6310013;28;20240;-80
2023/03/18 07:09:14;;;;;;;13.23;9.00;;;7.60;55.20;;;;;;6324100;28;20630;-76
2023/03/18 07:12:18;;;;;;;9.60;8.30;;;7.80;55.00;;;;;;6325740;28;20236;-78
2023/03/18 07:15:23;;;;;;;10.30;8.77;;;7.90;54.90;;;;;;6323053;28;20229;-79
2023/03/18 07:18:26;;;;;;;9.47;8.20;;;8.00;54.80;;;;;;6317469;28;20324;-77
2023/03/18 07:21:31;;;;;;;10.20;9.13;;;8.00;54.80;;;;;;6301041;28;20235;-79
2023/03/18 07:24:34;;;;;;;9.00;8.20;;;8.00;54.80;;;;;;6317002;28;20233;-75
2023/03/18 07:27:38;;;;;;;13.50;8.73;;;8.10;55.00;;;;;;6314826;28;20240;-78
2023/03/18 07:30:42;;;;;;;9.40;8.33;;;8.10;55.10;;;;;;6319839;28;20238;-77
2023/03/18 07:33:45;;;;;;;7.87;7.23;;;8.20;55.00;;;;;;6318182;28;20331;-76
2023/03/18 07:36:49;;;;;;;8.73;7.93;;;8.30;54.70;;;;;;6323002;28;20232;-76
2023/03/18 07:39:52;;;;;;;11.87;8.70;;;8.30;54.90;;;;;;6307758;27;20225;-77
2023/03/18 07:42:55;;;;;;;8.73;7.87;;;8.40;54.70;;;;;;6332618;28;20232;-79
2023/03/18 07:45:58;;;;;;;8.50;7.90;;;8.40;54.90;;;;;;6325298;27;20235;-77
2023/03/18 07:49:02;;;;;;;9.07;8.13;;;8.50;54.90;;;;;;6318007;28;20229;-75
2023/03/18 07:52:07;;;;;;;9.80;8.80;;;8.60;54.70;;;;;;6294985;28;20271;-78
2023/03/18 07:55:10;;;;;;;9.90;7.93;;;8.70;54.70;;;;;;6306914;28;20751;-78
2023/03/18 07:58:14;;;;;;;13.03;8.93;;;8.90;54.70;;;;;;6317027;28;20619;-77
2023/03/18 08:01:18;;;;;;;9.67;8.30;;;8.90;54.50;;;;;;6316152;28;20232;-79
2023/03/18 08:04:21;;;;;;;9.90;7.57;;;8.90;54.90;;;;;;6314228;28;22475;-76
2023/03/18 08:07:26;;;;;;;11.53;8.40;;;9.10;54.40;;;;;;6307161;28;20241;-77
2023/03/18 08:10:31;;;;;;;8.43;7.73;;;9.20;54.20;;;;;;6307557;28;20241;-77
2023/03/18 08:13:34;;;;;;;8.13;7.30;;;9.40;54.20;;;;;;6311304;28;20746;-76
2023/03/18 08:16:37;;;;;;;9.37;8.03;;;9.60;53.70;;;;;;6318838;28;20312;-77
2023/03/18 08:19:42;;;;;;;8.53;7.73;;;9.80;53.70;;;;;;6302894;28;20229;-78
2023/03/18 08:22:47;;;;;;;9.93;7.63;;;10.00;53.60;;;;;;6312568;28;20274;-78
2023/03/18 08:25:51;;;;;;;9.30;8.43;;;10.10;53.20;;;;;;6318926;28;20242;-76
2023/03/18 08:28:54;;;;;;;8.70;7.90;;;10.20;53.60;;;;;;6315572;28;20296;-77
2023/03/18 08:31:57;;;;;;;9.53;8.63;;;10.30;53.50;;;;;;6309697;28;20240;-77
2023/03/18 08:35:00;;;;;;;10.73;8.83;;;10.50;53.40;;;;;;6314735;28;20263;-75
2023/03/18 08:38:05;;;;;;;8.17;7.20;;;10.60;53.30;;;;;;6314648;28;20227;-77
2023/03/18 08:41:08;;;;;;;9.87;8.90;;;10.50;53.50;;;;;;6316202;28;20236;-76
2023/03/18 08:44:11;;;;;;;9.73;8.40;;;10.60;53.20;;;;;;6319732;28;20228;-78
2023/03/18 08:47:14;;;;;;;8.37;7.77;;;10.70;53.50;;;;;;6310679;28;20747;-79
2023/03/18 08:50:18;;;;;;;7.97;7.40;;;10.90;53.20;;;;;;6307947;28;20243;-78
2023/03/18 08:53:22;;;;;;;8.97;7.10;;;11.10;53.30;;;;;;6291919;28;20222;-78
2023/03/18 08:56:26;;;;;;;7.50;6.90;;;11.20;53.00;;;;;;6294390;28;20827;-77
2023/03/18 08:59:29;;;;;;;8.43;7.47;;;11.50;52.70;;;;;;6306517;28;20262;-77
2023/03/18 09:02:32;;;;;;;8.97;8.07;;;11.70;52.90;;;;;;6311157;28;20270;-76
2023/03/18 09:05:36;;;;;;;8.07;7.27;;;11.70;52.80;;;;;;6311581;28;20228;-75
2023/03/18 09:08:41;;;;;;;7.00;6.50;;;11.90;52.30;;;;;;6317430;28;20297;-77
2023/03/18 09:11:46;;;;;;;8.90;8.10;;;11.90;52.70;;;;;;6313531;28;20777;-78
2023/03/18 09:14:49;;;;;;;7.90;7.10;;;12.10;52.30;;;;;;6298672;28;20232;-79
2023/03/18 09:17:53;;;;;;;7.47;6.97;;;12.30;52.00;;;;;;6304970;28;20298;-75
2023/03/18 09:21:12;;;;;;;8.20;7.40;;;12.50;51.60;;;;;;6311105;28;20237;-79
2023/03/18 09:24:17;;;;;;;8.93;7.83;;;12.50;51.60;;;;;;6311834;28;20229;-77
2023/03/18 09:27:20;;;;;;;7.67;7.03;;;12.30;52.30;;;;;;6287609;28;20249;-77
2023/03/18 09:30:24;;;;;;;8.10;7.43;;;12.50;51.90;;;;;;6307936;28;20249;-80
2023/03/18 09:33:27;;;;;;;7.87;7.27;;;12.50;52.20;;;;;;6304906;28;20856;-78
2023/03/18 09:36:30;;;;;;;9.10;7.83;;;12.60;51.90;;;;;;6319950;28;20225;-78
2023/03/18 09:39:36;;;;;;;8.47;7.57;;;12.50;51.90;;;;;;6304764;28;20276;-77
2023/03/18 09:42:48;;;;;;;8.53;7.83;;;12.80;52.10;;;;;;6290893;28;20372;-80
2023/03/18 09:46:01;;;;;;;7.60;6.90;;;12.90;51.80;;;;;;6302721;28;20342;-77
2023/03/18 09:49:33;;;;;;;7.80;7.20;;;13.00;52.20;;;;;;6312656;28;20612;-77
2023/03/18 09:52:42;;;;;;;8.03;7.33;;;13.10;52.00;;;;;;6289665;28;20245;-77
2023/03/18 09:55:49;;;;;;;8.17;7.10;;;13.30;51.60;;;;;;6284736;28;20237;-79
2023/03/18 09:58:58;;;;;;;8.10;7.30;;;13.50;51.20;;;;;;6314477;27;20250;-77
2023/03/18 10:02:01;;;;;;;9.43;7.03;;;13.50;51.70;;;;;;6301524;28;20434;-77
2023/03/18 10:05:12;;;;;;;8.53;7.33;;;13.70;51.10;;;;;;6302989;28;20749;-78
2023/03/18 10:08:20;;;;;;;8.57;7.40;;;14.00;50.90;;;;;;6315073;28;20225;-79
2023/03/18 10:11:30;;;;;;;7.40;6.80;;;14.00;50.50;;;;;;6310566;28;20249;-75
2023/03/18 10:14:37;;;;;;;10.00;7.67;;;14.20;50.30;;;;;;6311623;28;20244;-78
2023/03/18 10:17:44;;;;;;;7.13;6.53;;;14.40;50.10;;;;;;6296470;28;20232;-78
2023/03/18 10:20:58;;;;;;;7.90;7.13;;;14.40;50.30;;;;;;6291899;28;20246;-77
2023/03/18 10:24:13;;;;;;;8.67;7.37;;;14.70;50.30;;;;;;6298825;28;20344;-77
2023/03/18 10:27:26;;;;;;;9.00;7.13;;;14.90;50.10;;;;;;6309453;28;20743;-77
2023/03/18 10:30:45;;;;;;;7.37;6.70;;;15.00;49.80;;;;;;6289553;28;20249;-78
2023/03/18 10:33:56;;;;;;;10.00;7.80;;;15.00;50.30;;;;;;6306817;28;20750;-78
2023/03/18 10:37:05;;;;;;;8.97;7.50;;;15.20;50.00;;;;;;6313258;28;20240;-78
2023/03/18 10:40:14;;;;;;;15.43;9.13;;;15.40;49.80;;;;;;6311592;28;20235;-79
2023/03/18 10:43:21;;;;;;;8.67;7.87;;;15.60;49.60;;;;;;6312971;28;20875;-78
2023/03/18 10:46:27;;;;;;;8.97;8.03;;;15.80;49.50;;;;;;6312314;28;20236;-76
2023/03/18 10:49:35;;;;;;;8.20;7.47;;;16.00;49.40;;;;;;6312828;28;20308;-77
2023/03/18 10:52:42;;;;;;;9.47;8.07;;;16.00;49.60;;;;;;6318507;27;20296;-77
2023/03/18 10:55:54;;;;;;;9.17;8.27;;;16.00;49.80;;;;;;6307469;28;20237;-78
2023/03/18 10:59:00;;;;;;;11.13;8.03;;;16.00;49.80;;;;;;6316026;28;20912;-79
2023/03/18 11:02:11;;;;;;;9.67;7.20;;;16.00;49.80;;;;;;6309771;28;20736;-78
2023/03/18 11:05:22;;;;;;;8.07;7.00;;;16.20;49.90;;;;;;6311071;28;20225;-78
2023/03/18 11:08:35;;;;;;;9.97;7.10;;;16.10;49.80;;;;;;6311379;28;20781;-78
2023/03/18 11:11:40;;;;;;;9.07;7.63;;;16.00;49.90;;;;;;6312000;28;20247;-80
2023/03/18 11:14:48;;;;;;;9.13;6.63;;;15.80;50.20;;;;;;6309351;28;20240;-77
2023/03/18 11:17:52;;;;;;;7.27;6.50;;;15.80;50.70;;;;;;6314530;28;20259;-78
2023/03/18 11:20:59;;;;;;;21.73;6.90;;;15.80;50.20;;;;;;6315911;28;20247;-78
2023/03/18 11:24:09;;;;;;;7.27;6.60;;;15.90;50.80;;;;;;6315664;28;20233;-77
2023/03/18 11:27:28;;;;;;;6.70;6.10;;;16.00;50.10;;;;;;6313958;28;20300;-79
2023/03/18 11:30:47;;;;;;;6.87;6.30;;;16.10;50.30;;;;;;6314479;28;20248;-79
2023/03/18 11:33:56;;;;;;;10.77;6.70;;;16.20;50.40;;;;;;6306236;28;20766;-78
2023/03/18 11:37:03;;;;;;;7.00;6.30;;;16.20;51.10;;;;;;6312779;28;20837;-76
2023/03/18 11:40:18;;;;;;;7.10;6.40;;;15.90;51.20;;;;;;6315646;28;20232;-76
2023/03/18 11:43:24;;;;;;;6.60;6.20;;;16.10;51.50;;;;;;6317631;28;20640;-76
2023/03/18 11:46:32;;;;;;;6.10;5.80;;;16.30;51.50;;;;;;6309555;27;20255;-79
2023/03/18 11:49:35;;;;;;;6.80;6.30;;;16.50;51.40;;;;;;6308906;28;20229;-79
2023/03/18 11:52:45;;;;;;;8.03;7.43;;;16.20;51.60;;;;;;6313523;28;20229;-78
2023/03/18 11:55:52;;;;;;;7.97;6.97;;;16.30;51.70;;;;;;6302229;28;20229;-76
2023/03/18 11:59:21;;;;;;;7.13;6.53;;;16.40;51.10;;;;;;6305950;28;20229;-77
2023/03/18 12:02:37;;;;;;;6.93;6.43;;;16.50;51.40;;;;;;6290151;28;20259;-77
2023/03/18 12:05:53;;;;;;;8.23;6.70;;;16.70;51.10;;;;;;6314295;28;20233;-76
2023/03/18 12:09:06;;;;;;;9.00;7.03;;;16.90;50.80;;;;;;6314073;28;20233;-77
2023/03/18 12:12:23;;;;;;;7.07;6.47;;;16.70;51.30;;;;;;6308726;28;20809;-77
2023/03/18 12:15:36;;;;;;;6.00;5.50;;;16.70;51.60;;;;;;6288707;28;20240;-76
2023/03/18 12:18:52;;;;;;;5.80;5.23;;;17.00;51.30;;;;;;6293087;28;20249;-77
2023/03/18 12:22:06;;;;;;;5.77;5.27;;;17.20;51.60;;;;;;6314274;28;20251;-77
2023/03/18 12:25:29;;;;;;;6.17;5.73;;;17.20;51.80;;;;;;6312506;28;20580;-78
2023/03/18 12:28:57;;;;;;;7.13;6.40;;;17.40;51.10;;;;;;6316308;28;20241;-78
2023/03/18 12:32:13;;;;;;;7.77;6.40;;;17.20;50.90;;;;;;6294507;28;20226;-79
2023/03/18 12:39:23;;;;;;;5.83;5.43;;;17.30;51.20;;;;;;6261618;27;1667382;-77
2023/03/18 12:42:48;;;;;;;6.00;5.50;;;17.60;50.70;;;;;;6302725;28;20236;-77
2023/03/18 12:45:58;;;;;;;7.03;6.43;;;17.60;51.10;;;;;;6290849;28;20229;-79
2023/03/18 12:49:08;;;;;;;6.30;5.80;;;17.60;50.80;;;;;;6310197;28;20301;-79
2023/03/18 12:52:19;;;;;;;6.20;5.80;;;17.60;51.10;;;;;;6302775;28;20229;-79
2023/03/18 12:55:30;;;;;;;6.63;5.17;;;17.60;51.40;;;;;;6296726;28;20271;-80
2023/03/18 12:58:38;;;;;;;6.80;6.20;;;17.70;51.40;;;;;;6292812;28;20229;-78
2023/03/18 13:01:48;;;;;;;7.10;5.57;;;17.60;51.60;;;;;;6273802;28;20230;-76
2023/03/18 13:04:57;;;;;;;5.53;5.00;;;17.70;51.80;;;;;;6281383;28;20241;-79
2023/03/18 13:08:24;;;;;;;6.57;5.97;;;17.70;52.10;;;;;;6273415;28;20241;-79
2023/03/18 13:11:57;;;;;;;6.47;5.67;;;17.90;51.50;;;;;;6283457;28;20237;-78
2023/03/18 13:15:07;;;;;;;9.03;6.13;;;18.00;51.40;;;;;;6287587;28;20232;-79
2023/03/18 13:18:17;;;;;;;6.93;6.23;;;18.10;51.80;;;;;;6299655;28;20322;-79
2023/03/18 13:21:23;;;;;;;6.43;5.50;;;18.00;51.70;;;;;;6265794;28;20751;-79
2023/03/18 13:24:47;;;;;;;7.77;5.40;;;17.90;52.10;;;;;;6282555;28;20221;-79
2023/03/18 13:28:06;;;;;;;7.50;5.70;;;18.00;51.90;;;;;;6287095;28;20236;-77
2023/03/18 13:31:18;;;;;;;6.17;5.67;;;18.20;51.50;;;;;;6280283;28;22972;-76
2023/03/18 13:34:51;;;;;;;5.50;5.10;;;18.30;51.60;;;;;;6290425;28;20248;-77
2023/03/18 13:38:20;;;;;;;7.60;6.13;;;18.30;51.40;;;;;;6276912;28;20238;-80
2023/03/18 13:41:51;;;;;;;5.77;5.37;;;18.40;51.60;;;;;;6264531;28;20322;-78
2023/03/18 13:45:05;;;;;;;6.00;5.43;;;18.50;51.70;;;;;;6250893;28;20233;-79
2023/03/18 13:48:13;;;;;;;5.67;5.10;;;18.40;51.70;;;;;;6271022;28;20243;-78
2023/03/18 13:51:40;;;;;;;5.73;5.10;;;18.40;51.70;;;;;;6260234;28;20226;-78
2023/03/18 13:54:43;;;;;;;5.97;5.57;;;18.50;51.60;;;;;;6287524;28;20237;-80
2023/03/18 13:57:57;;;;;;;5.60;5.20;;;18.60;51.70;;;;;;6274783;28;20249;-79
2023/03/18 14:01:31;;;;;;;6.53;6.00;;;18.70;51.60;;;;;;6263279;28;20249;-79
2023/03/18 14:04:46;;;;;;;5.60;5.30;;;18.80;50.80;;;;;;6253673;28;20241;-78
2023/03/18 14:07:49;;;;;;;6.53;5.87;;;18.70;51.30;;;;;;6263406;28;20281;-77
2023/03/18 14:11:28;;;;;;;6.23;5.73;;;18.80;51.50;;;;;;6256634;28;20874;-79
2023/03/18 14:14:57;;;;;;;7.13;6.23;;;18.80;51.30;;;;;;6261622;28;20753;-79
2023/03/18 14:18:01;;;;;;;6.23;5.73;;;18.50;51.60;;;;;;6280787;28;20240;-81
2023/03/18 14:21:07;;;;;;;9.07;5.60;;;18.30;52.20;;;;;;6276637;28;20237;-77
2023/03/18 14:24:13;;;;;;;7.00;5.57;;;18.40;52.30;;;;;;6278306;28;20722;-78
2023/03/18 14:27:19;;;;;;;6.00;5.03;;;18.50;52.00;;;;;;6274396;28;20232;-79
2023/03/18 14:30:56;;;;;;;5.93;5.43;;;18.50;52.20;;;;;;6314750;28;20237;-79
2023/03/18 14:34:22;;;;;;;7.97;6.07;;;18.40;52.20;;;;;;6239590;28;20227;-76
2023/03/18 14:37:28;;;;;;;8.87;7.97;;;18.40;52.40;;;;;;6246288;28;20228;-77
2023/03/18 14:40:40;;;;;;;6.73;6.07;;;18.30;52.60;;;;;;6305996;28;20237;-76
2023/03/18 14:43:53;;;;;;;5.73;5.43;;;18.30;52.40;;;;;;6291411;28;20240;-77
2023/03/18 14:46:59;;;;;;;6.20;5.70;;;18.00;52.60;;;;;;6295122;28;20245;-76
2023/03/18 14:50:14;;;;;;;5.43;4.93;;;17.90;53.00;;;;;;6274218;28;20258;-78
2023/03/18 14:53:21;;;;;;;6.60;6.00;;;17.70;53.40;;;;;;6261184;28;20859;-79
2023/03/18 14:56:28;;;;;;;7.33;5.70;;;17.50;53.70;;;;;;6261115;28;20265;-79
2023/03/18 14:59:32;;;;;;;7.47;5.87;;;17.40;54.00;;;;;;6262496;28;20317;-79
2023/03/18 15:02:38;;;;;;;7.27;6.67;;;17.30;54.20;;;;;;6258582;28;20247;-78
2023/03/18 15:05:45;;;;;;;5.40;5.07;;;17.20;54.50;;;;;;6265188;28;20770;-77
2023/03/18 15:08:51;;;;;;;7.60;5.00;;;17.20;54.60;;;;;;6261392;28;20250;-77
2023/03/18 15:11:54;;;;;;;6.33;5.93;;;17.20;54.70;;;;;;6264016;28;20240;-77
2023/03/18 15:14:57;;;;;;;6.93;6.30;;;17.50;54.80;;;;;;6250581;28;20241;-79
2023/03/18 15:18:03;;;;;;;5.50;5.10;;;17.60;54.50;;;;;;6267146;28;20775;-78
2023/03/18 15:21:10;;;;;;;5.50;5.07;;;17.70;54.40;;;;;;6266554;28;20253;-78
2023/03/18 15:24:18;;;;;;;6.97;5.57;;;17.80;54.30;;;;;;6289041;28;20290;-78
2023/03/18 15:27:22;;;;;;;6.47;5.30;;;17.70;54.30;;;;;;6293206;28;20230;-78
2023/03/18 15:30:27;;;;;;;5.67;5.27;;;17.60;54.30;;;;;;6294103;28;20222;-76
2023/03/18 15:33:35;;;;;;;6.40;5.80;;;17.50;54.60;;;;;;6286659;28;20301;-75
2023/03/18 15:36:44;;;;;;;5.23;4.80;;;17.30;55.10;;;;;;6291927;28;20282;-76
2023/03/18 15:39:48;;;;;;;5.63;5.20;;;17.10;55.40;;;;;;6280261;28;20232;-75
2023/03/18 15:42:54;;;;;;;5.40;4.67;;;17.00;55.50;;;;;;6257178;28;20706;-78
2023/03/18 15:45:59;;;;;;;5.53;5.03;;;17.00;55.60;;;;;;6258417;28;20251;-78
2023/03/18 15:49:04;;;;;;;4.63;4.23;;;17.00;55.70;;;;;;6287776;28;20234;-76
2023/03/18 15:52:08;;;;;;;4.30;4.10;;;17.00;55.70;;;;;;6279110;28;20265;-77
2023/03/18 15:55:28;;;;;;;7.63;6.87;;;16.90;55.80;;;;;;6273606;28;20238;-79
2023/03/18 15:58:36;;;;;;;7.40;6.80;;;16.90;56.10;;;;;;6300502;28;20310;-79
2023/03/18 16:01:39;;;;;;;9.17;6.33;;;16.70;56.50;;;;;;6280039;28;20887;-79
2023/03/18 16:04:44;;;;;;;6.33;5.83;;;16.70;56.50;;;;;;6272558;28;20236;-81
2023/03/18 16:07:49;;;;;;;6.97;6.37;;;16.60;56.60;;;;;;6267954;28;20235;-78
2023/03/18 16:10:54;;;;;;;6.80;6.17;;;16.60;56.80;;;;;;6276294;28;20226;-78
2023/03/18 16:13:59;;;;;;;5.97;5.40;;;16.60;56.80;;;;;;6277561;28;20321;-79
2023/03/18 16:17:02;;;;;;;5.60;5.13;;;16.50;56.70;;;;;;6280689;28;20441;-79
2023/03/18 16:20:14;;;;;;;5.93;5.10;;;16.50;56.80;;;;;;6287897;28;20321;-80
2023/03/18 16:23:19;;;;;;;8.93;5.40;;;16.40;57.10;;;;;;6285095;28;20240;-77